Terminal Aerodrome Forecast
Issued by NWS Portland, OR

Home | Current Version | Previous Version | Text Only | Print | Product List | Glossary On
Versions: 1 2 3 4 5 6 7 8 9 10 11 12 13 14 15 16 17 18 19 20 21 22 23 24 25 26 27 28 29
000
FTUS46 KPQR 101133
TAFSLE
TAF
KSLE 101133Z 1012/1112 35004KT P6SM SKC
     FM101500 35005KT P6SM SCT015
     FM101700 35007KT P6SM SKC
     FM102200 01010KT P6SM SKC
     FM110200 30009KT P6SM SKC
     FM110600 VRB03KT P6SM SKC=

USA.gov is the U.S. government's official web portal to all federal, state and local government web resources and services.